Cabo, Brazil
Current Conditions -  °F | °C
As of 9:00 PM on Saturday 25 Oct 2014 (Local Time) from SBRF Reporting Station
Broken Clouds Broken Clouds  
Wind Chill: 79°   Ceiling: 2300
Heat Index: 82°   Visibility: 6mi
Dew Point: 72°   Wind: 7mph
Humidity: 78%   Direction: 120°ESE
Pressure: 29.97"   Gusts: NA
Location:  8.26°S, 35.01°W
Report Text: SBRF 260000Z 12006KT 9999 BKN023 26/22 Q1015
Loading
Personal Weather Stations






























Interactive Weather Map
Tropical Storm Tracking
New forecast layout! Learn more

10-Day Weather Forecast

Advertisements
Track Severe Weather on mobile